sensor_id;sensor_type;location;lat;lon;timestamp;temperature;humidity
18741;DHT22;9499;52.472;13.448;2023-08-21T00:00:37;23.60;1.00
18741;DHT22;9499;52.472;13.448;2023-08-21T00:03:04;23.50;1.00
18741;DHT22;9499;52.472;13.448;2023-08-21T00:05:31;23.50;1.00
18741;DHT22;9499;52.472;13.448;2023-08-21T00:07:58;23.50;1.00
18741;DHT22;9499;52.472;13.448;2023-08-21T00:10:24;23.40;1.00
18741;DHT22;9499;52.472;13.448;2023-08-21T00:12:51;23.40;1.00
18741;DHT22;9499;52.472;13.448;2023-08-21T00:15:19;23.40;1.00
18741;DHT22;9499;52.472;13.448;2023-08-21T00:17:45;23.40;1.00
18741;DHT22;9499;52.472;13.448;2023-08-21T00:20:12;23.30;1.00
18741;DHT22;9499;52.472;13.448;2023-08-21T00:22:38;23.20;10.20
18741;DHT22;9499;52.472;13.448;2023-08-21T00:25:05;23.20;10.50
18741;DHT22;9499;52.472;13.448;2023-08-21T00:27:31;23.20;14.70
18741;DHT22;9499;52.472;13.448;2023-08-21T00:29:59;23.20;16.30
18741;DHT22;9499;52.472;13.448;2023-08-21T00:32:27;23.20;10.60
18741;DHT22;9499;52.472;13.448;2023-08-21T00:34:54;23.20;10.00
18741;DHT22;9499;52.472;13.448;2023-08-21T00:37:20;23.20;8.00
18741;DHT22;9499;52.472;13.448;2023-08-21T00:39:47;23.20;11.40
18741;DHT22;9499;52.472;13.448;2023-08-21T00:42:13;23.20;8.10
18741;DHT22;9499;52.472;13.448;2023-08-21T00:44:40;23.20;7.20
18741;DHT22;9499;52.472;13.448;2023-08-21T00:47:06;23.10;15.30
18741;DHT22;9499;52.472;13.448;2023-08-21T00:49:34;23.20;14.00
18741;DHT22;9499;52.472;13.448;2023-08-21T00:52:01;23.10;17.50
18741;DHT22;9499;52.472;13.448;2023-08-21T00:56:57;23.10;11.70
18741;DHT22;9499;52.472;13.448;2023-08-21T00:59:24;23.10;18.70
18741;DHT22;9499;52.472;13.448;2023-08-21T01:01:51;23.10;19.80
18741;DHT22;9499;52.472;13.448;2023-08-21T01:04:18;23.00;18.80
18741;DHT22;9499;52.472;13.448;2023-08-21T01:06:45;23.10;20.30
18741;DHT22;9499;52.472;13.448;2023-08-21T01:09:16;23.10;14.60
18741;DHT22;9499;52.472;13.448;2023-08-21T01:11:48;23.10;11.90
18741;DHT22;9499;52.472;13.448;2023-08-21T01:14:21;23.10;11.70
18741;DHT22;9499;52.472;13.448;2023-08-21T01:16:54;23.10;13.40
18741;DHT22;9499;52.472;13.448;2023-08-21T01:19:28;23.10;10.10
18741;DHT22;9499;52.472;13.448;2023-08-21T01:21:58;23.00;15.80
18741;DHT22;9499;52.472;13.448;2023-08-21T01:24:26;23.00;16.60
18741;DHT22;9499;52.472;13.448;2023-08-21T01:26:52;23.00;25.40
18741;DHT22;9499;52.472;13.448;2023-08-21T01:29:19;23.00;21.70
18741;DHT22;9499;52.472;13.448;2023-08-21T01:31:49;23.00;23.10
18741;DHT22;9499;52.472;13.448;2023-08-21T01:34:17;23.00;23.20
18741;DHT22;9499;52.472;13.448;2023-08-21T01:36:43;23.00;18.40
18741;DHT22;9499;52.472;13.448;2023-08-21T01:39:10;23.00;13.50
18741;DHT22;9499;52.472;13.448;2023-08-21T01:41:38;23.10;8.30
18741;DHT22;9499;52.472;13.448;2023-08-21T01:44:05;23.00;10.20
18741;DHT22;9499;52.472;13.448;2023-08-21T01:46:31;23.10;7.70
18741;DHT22;9499;52.472;13.448;2023-08-21T01:48:58;23.00;11.40
18741;DHT22;9499;52.472;13.448;2023-08-21T01:51:24;23.00;9.50
18741;DHT22;9499;52.472;13.448;2023-08-21T01:53:51;23.00;12.00
18741;DHT22;9499;52.472;13.448;2023-08-21T01:56:17;23.00;11.10
18741;DHT22;9499;52.472;13.448;2023-08-21T01:58:45;22.90;14.00
18741;DHT22;9499;52.472;13.448;2023-08-21T02:01:11;22.90;18.00
18741;DHT22;9499;52.472;13.448;2023-08-21T02:03:39;22.90;19.50
18741;DHT22;9499;52.472;13.448;2023-08-21T02:06:05;22.80;23.80
18741;DHT22;9499;52.472;13.448;2023-08-21T02:08:32;22.80;28.20
18741;DHT22;9499;52.472;13.448;2023-08-21T02:10:59;22.80;25.80
18741;DHT22;9499;52.472;13.448;2023-08-21T02:13:26;22.80;26.40
18741;DHT22;9499;52.472;13.448;2023-08-21T02:15:54;22.80;27.40
18741;DHT22;9499;52.472;13.448;2023-08-21T02:18:20;22.80;25.90
18741;DHT22;9499;52.472;13.448;2023-08-21T02:20:47;22.80;27.50
18741;DHT22;9499;52.472;13.448;2023-08-21T02:23:13;22.80;20.10
18741;DHT22;9499;52.472;13.448;2023-08-21T02:25:40;22.80;21.20
18741;DHT22;9499;52.472;13.448;2023-08-21T02:28:07;22.80;21.20
18741;DHT22;9499;52.472;13.448;2023-08-21T02:30:33;22.80;18.80
18741;DHT22;9499;52.472;13.448;2023-08-21T02:33:01;22.80;17.50
18741;DHT22;9499;52.472;13.448;2023-08-21T02:35:28;22.80;17.60
18741;DHT22;9499;52.472;13.448;2023-08-21T02:37:54;22.80;18.90
18741;DHT22;9499;52.472;13.448;2023-08-21T02:40:21;22.70;20.40
18741;DHT22;9499;52.472;13.448;2023-08-21T02:42:47;22.80;16.30
18741;DHT22;9499;52.472;13.448;2023-08-21T02:45:14;22.80;13.00
18741;DHT22;9499;52.472;13.448;2023-08-21T02:47:41;22.80;10.20
18741;DHT22;9499;52.472;13.448;2023-08-21T02:50:10;22.80;8.30
18741;DHT22;9499;52.472;13.448;2023-08-21T02:52:36;22.80;8.40
18741;DHT22;9499;52.472;13.448;2023-08-21T02:55:03;22.70;13.40
18741;DHT22;9499;52.472;13.448;2023-08-21T02:57:30;22.70;10.30
18741;DHT22;9499;52.472;13.448;2023-08-21T02:59:57;22.70;9.80
18741;DHT22;9499;52.472;13.448;2023-08-21T03:02:23;22.70;9.80
18741;DHT22;9499;52.472;13.448;2023-08-21T03:04:50;22.70;9.50
18741;DHT22;9499;52.472;13.448;2023-08-21T03:07:18;22.70;9.20
18741;DHT22;9499;52.472;13.448;2023-08-21T03:09:46;22.70;8.00
18741;DHT22;9499;52.472;13.448;2023-08-21T03:12:13;22.70;1.00
18741;DHT22;9499;52.472;13.448;2023-08-21T03:14:39;22.70;1.00
18741;DHT22;9499;52.472;13.448;2023-08-21T03:17:06;22.70;1.00
18741;DHT22;9499;52.472;13.448;2023-08-21T03:19:32;22.70;1.00
18741;DHT22;9499;52.472;13.448;2023-08-21T03:21:59;22.80;1.00
18741;DHT22;9499;52.472;13.448;2023-08-21T03:24:26;22.80;1.00
18741;DHT22;9499;52.472;13.448;2023-08-21T03:26:53;22.80;1.00
18741;DHT22;9499;52.472;13.448;2023-08-21T03:29:19;22.70;1.00
18741;DHT22;9499;52.472;13.448;2023-08-21T03:31:48;22.70;1.00
18741;DHT22;9499;52.472;13.448;2023-08-21T03:34:15;22.70;1.00
18741;DHT22;9499;52.472;13.448;2023-08-21T03:36:41;22.70;1.00
18741;DHT22;9499;52.472;13.448;2023-08-21T03:39:08;22.70;1.00
18741;DHT22;9499;52.472;13.448;2023-08-21T03:41:35;22.70;1.00
18741;DHT22;9499;52.472;13.448;2023-08-21T03:44:02;22.70;1.00
18741;DHT22;9499;52.472;13.448;2023-08-21T03:46:28;22.70;1.00
18741;DHT22;9499;52.472;13.448;2023-08-21T03:48:55;22.80;1.00
18741;DHT22;9499;52.472;13.448;2023-08-21T03:51:22;22.80;1.00
18741;DHT22;9499;52.472;13.448;2023-08-21T03:53:49;22.80;1.00
18741;DHT22;9499;52.472;13.448;2023-08-21T03:56:16;22.80;1.00
18741;DHT22;9499;52.472;13.448;2023-08-21T03:58:45;22.80;1.00
18741;DHT22;9499;52.472;13.448;2023-08-21T04:01:12;22.80;1.00
18741;DHT22;9499;52.472;13.448;2023-08-21T04:03:38;22.80;1.00
18741;DHT22;9499;52.472;13.448;2023-08-21T04:06:04;22.80;1.00
18741;DHT22;9499;52.472;13.448;2023-08-21T04:08:31;22.80;1.00
18741;DHT22;9499;52.472;13.448;2023-08-21T04:10:58;22.80;1.00
18741;DHT22;9499;52.472;13.448;2023-08-21T04:13:25;22.80;1.00
18741;DHT22;9499;52.472;13.448;2023-08-21T04:15:54;22.80;1.00
18741;DHT22;9499;52.472;13.448;2023-08-21T04:18:22;22.80;1.00
18741;DHT22;9499;52.472;13.448;2023-08-21T04:20:48;22.80;1.00
18741;DHT22;9499;52.472;13.448;2023-08-21T04:23:15;22.90;1.00
18741;DHT22;9499;52.472;13.448;2023-08-21T04:25:41;22.90;1.00
18741;DHT22;9499;52.472;13.448;2023-08-21T04:28:08;22.90;1.00
18741;DHT22;9499;52.472;13.448;2023-08-21T04:30:35;22.90;1.00
18741;DHT22;9499;52.472;13.448;2023-08-21T04:33:03;22.90;1.00
18741;DHT22;9499;52.472;13.448;2023-08-21T04:35:36;23.00;1.00
18741;DHT22;9499;52.472;13.448;2023-08-21T04:38:03;23.00;1.00
18741;DHT22;9499;52.472;13.448;2023-08-21T04:40:29;23.00;1.00
18741;DHT22;9499;52.472;13.448;2023-08-21T04:42:56;23.00;1.00
18741;DHT22;9499;52.472;13.448;2023-08-21T04:45:22;23.00;1.00
18741;DHT22;9499;52.472;13.448;2023-08-21T04:47:49;23.00;1.00
18741;DHT22;9499;52.472;13.448;2023-08-21T04:50:17;23.00;1.00
18741;DHT22;9499;52.472;13.448;2023-08-21T04:52:43;23.00;1.00
18741;DHT22;9499;52.472;13.448;2023-08-21T04:55:10;23.00;1.00
18741;DHT22;9499;52.472;13.448;2023-08-21T04:57:36;23.00;1.00
18741;DHT22;9499;52.472;13.448;2023-08-21T05:00:03;22.90;1.00
18741;DHT22;9499;52.472;13.448;2023-08-21T05:02:30;22.90;1.00
18741;DHT22;9499;52.472;13.448;2023-08-21T05:04:56;22.90;1.00
18741;DHT22;9499;52.472;13.448;2023-08-21T05:07:24;22.80;1.00
18741;DHT22;9499;52.472;13.448;2023-08-21T05:09:52;22.70;1.00
18741;DHT22;9499;52.472;13.448;2023-08-21T05:12:18;22.70;1.00
18741;DHT22;9499;52.472;13.448;2023-08-21T05:14:45;22.70;1.00
18741;DHT22;9499;52.472;13.448;2023-08-21T05:17:11;22.60;1.00
18741;DHT22;9499;52.472;13.448;2023-08-21T05:19:38;22.70;1.00
18741;DHT22;9499;52.472;13.448;2023-08-21T05:22:04;22.60;1.00
18741;DHT22;9499;52.472;13.448;2023-08-21T05:24:32;22.50;1.00
18741;DHT22;9499;52.472;13.448;2023-08-21T05:26:58;22.60;1.00
18741;DHT22;9499;52.472;13.448;2023-08-21T05:29:25;22.60;1.00
18741;DHT22;9499;52.472;13.448;2023-08-21T05:31:51;22.70;1.00
18741;DHT22;9499;52.472;13.448;2023-08-21T05:34:18;22.70;1.00
18741;DHT22;9499;52.472;13.448;2023-08-21T05:36:44;22.70;1.00
18741;DHT22;9499;52.472;13.448;2023-08-21T05:39:11;22.70;1.00
18741;DHT22;9499;52.472;13.448;2023-08-21T05:41:39;22.70;1.00
18741;DHT22;9499;52.472;13.448;2023-08-21T05:44:06;22.80;1.00
18741;DHT22;9499;52.472;13.448;2023-08-21T05:46:32;22.80;1.00
18741;DHT22;9499;52.472;13.448;2023-08-21T05:48:58;22.80;1.00
18741;DHT22;9499;52.472;13.448;2023-08-21T05:51:25;22.80;1.00
18741;DHT22;9499;52.472;13.448;2023-08-21T05:53:51;22.80;1.00
18741;DHT22;9499;52.472;13.448;2023-08-21T05:56:18;22.80;1.00
18741;DHT22;9499;52.472;13.448;2023-08-21T05:58:46;22.90;1.00
18741;DHT22;9499;52.472;13.448;2023-08-21T06:01:12;22.90;1.00
18741;DHT22;9499;52.472;13.448;2023-08-21T06:03:39;22.90;1.00
18741;DHT22;9499;52.472;13.448;2023-08-21T06:06:05;23.00;1.00
18741;DHT22;9499;52.472;13.448;2023-08-21T06:08:32;23.00;1.00
18741;DHT22;9499;52.472;13.448;2023-08-21T06:10:58;23.10;1.00
18741;DHT22;9499;52.472;13.448;2023-08-21T06:13:25;23.20;1.00
18741;DHT22;9499;52.472;13.448;2023-08-21T06:15:53;23.30;1.00
18741;DHT22;9499;52.472;13.448;2023-08-21T06:18:20;23.40;1.00
18741;DHT22;9499;52.472;13.448;2023-08-21T06:20:46;23.40;1.00
18741;DHT22;9499;52.472;13.448;2023-08-21T06:23:13;23.50;1.00
18741;DHT22;9499;52.472;13.448;2023-08-21T06:25:39;23.50;1.00
18741;DHT22;9499;52.472;13.448;2023-08-21T06:28:09;23.50;1.00
18741;DHT22;9499;52.472;13.448;2023-08-21T06:30:36;23.60;1.00
18741;DHT22;9499;52.472;13.448;2023-08-21T06:33:04;23.60;1.00
18741;DHT22;9499;52.472;13.448;2023-08-21T06:35:30;23.70;1.00
18741;DHT22;9499;52.472;13.448;2023-08-21T06:37:56;23.70;1.00
18741;DHT22;9499;52.472;13.448;2023-08-21T06:40:23;23.80;1.00
18741;DHT22;9499;52.472;13.448;2023-08-21T06:42:50;23.80;99.90
18741;DHT22;9499;52.472;13.448;2023-08-21T06:45:18;23.80;99.90
18741;DHT22;9499;52.472;13.448;2023-08-21T06:47:44;23.90;1.00
18741;DHT22;9499;52.472;13.448;2023-08-21T06:50:12;24.00;1.00
18741;DHT22;9499;52.472;13.448;2023-08-21T06:52:39;24.00;1.00
18741;DHT22;9499;52.472;13.448;2023-08-21T06:57:36;24.10;1.00
18741;DHT22;9499;52.472;13.448;2023-08-21T07:00:04;24.10;1.00
18741;DHT22;9499;52.472;13.448;2023-08-21T07:02:31;24.10;1.00
18741;DHT22;9499;52.472;13.448;2023-08-21T07:04:58;24.10;1.00
18741;DHT22;9499;52.472;13.448;2023-08-21T07:07:26;24.10;99.90
18741;DHT22;9499;52.472;13.448;2023-08-21T07:09:52;24.10;99.90
18741;DHT22;9499;52.472;13.448;2023-08-21T07:12:19;24.10;1.00
18741;DHT22;9499;52.472;13.448;2023-08-21T07:14:45;24.10;1.00
18741;DHT22;9499;52.472;13.448;2023-08-21T07:17:12;24.10;1.00
18741;DHT22;9499;52.472;13.448;2023-08-21T07:19:38;24.10;1.00
18741;DHT22;9499;52.472;13.448;2023-08-21T07:22:05;24.20;1.00
18741;DHT22;9499;52.472;13.448;2023-08-21T07:24:33;24.10;1.00
18741;DHT22;9499;52.472;13.448;2023-08-21T07:26:59;23.90;99.90
18741;DHT22;9499;52.472;13.448;2023-08-21T07:29:26;24.00;99.90
18741;DHT22;9499;52.472;13.448;2023-08-21T07:31:52;24.10;99.90
18741;DHT22;9499;52.472;13.448;2023-08-21T07:34:18;24.10;19.20
18741;DHT22;9499;52.472;13.448;2023-08-21T07:36:45;24.20;1.00
18741;DHT22;9499;52.472;13.448;2023-08-21T07:39:11;24.20;1.00
18741;DHT22;9499;52.472;13.448;2023-08-21T07:41:39;24.30;1.00
18741;DHT22;9499;52.472;13.448;2023-08-21T07:44:06;24.40;1.00
18741;DHT22;9499;52.472;13.448;2023-08-21T07:46:32;24.40;1.00
18741;DHT22;9499;52.472;13.448;2023-08-21T07:48:59;24.50;1.00
18741;DHT22;9499;52.472;13.448;2023-08-21T07:51:25;24.60;1.00
18741;DHT22;9499;52.472;13.448;2023-08-21T07:53:52;24.60;1.00
18741;DHT22;9499;52.472;13.448;2023-08-21T07:56:18;24.60;1.00
18741;DHT22;9499;52.472;13.448;2023-08-21T07:58:46;24.60;1.00
18741;DHT22;9499;52.472;13.448;2023-08-21T08:01:12;24.50;99.90
18741;DHT22;9499;52.472;13.448;2023-08-21T08:03:39;24.50;1.00
18741;DHT22;9499;52.472;13.448;2023-08-21T08:06:06;24.50;36.30
18741;DHT22;9499;52.472;13.448;2023-08-21T08:08:32;24.50;1.00
18741;DHT22;9499;52.472;13.448;2023-08-21T08:11:01;24.60;99.90
18741;DHT22;9499;52.472;13.448;2023-08-21T08:13:28;24.60;99.90
18741;DHT22;9499;52.472;13.448;2023-08-21T08:15:56;24.80;99.90
18741;DHT22;9499;52.472;13.448;2023-08-21T08:18:23;24.80;99.90
18741;DHT22;9499;52.472;13.448;2023-08-21T08:20:49;24.80;1.00
18741;DHT22;9499;52.472;13.448;2023-08-21T08:23:16;24.80;1.00
18741;DHT22;9499;52.472;13.448;2023-08-21T08:25:42;24.80;99.90
18741;DHT22;9499;52.472;13.448;2023-08-21T08:28:09;24.90;99.90
18741;DHT22;9499;52.472;13.448;2023-08-21T08:30:35;24.90;1.00
18741;DHT22;9499;52.472;13.448;2023-08-21T08:33:03;25.00;99.90
18741;DHT22;9499;52.472;13.448;2023-08-21T08:35:30;24.90;99.90
18741;DHT22;9499;52.472;13.448;2023-08-21T08:37:56;24.90;99.90
18741;DHT22;9499;52.472;13.448;2023-08-21T08:40:23;24.90;99.90
18741;DHT22;9499;52.472;13.448;2023-08-21T08:42:49;24.90;99.90
18741;DHT22;9499;52.472;13.448;2023-08-21T08:45:23;24.90;99.90
18741;DHT22;9499;52.472;13.448;2023-08-21T08:47:54;24.90;99.90
18741;DHT22;9499;52.472;13.448;2023-08-21T08:50:23;25.00;99.90
18741;DHT22;9499;52.472;13.448;2023-08-21T08:52:50;25.10;99.90
18741;DHT22;9499;52.472;13.448;2023-08-21T08:55:16;25.20;8.10
18741;DHT22;9499;52.472;13.448;2023-08-21T08:57:43;25.30;1.00
18741;DHT22;9499;52.472;13.448;2023-08-21T09:00:11;25.50;1.00
18741;DHT22;9499;52.472;13.448;2023-08-21T09:02:37;25.50;1.00
18741;DHT22;9499;52.472;13.448;2023-08-21T09:05:04;25.50;1.00
18741;DHT22;9499;52.472;13.448;2023-08-21T09:07:33;25.60;1.00
18741;DHT22;9499;52.472;13.448;2023-08-21T09:10:00;25.60;1.00
18741;DHT22;9499;52.472;13.448;2023-08-21T09:12:31;25.70;1.00
18741;DHT22;9499;52.472;13.448;2023-08-21T09:14:59;25.70;99.90
18741;DHT22;9499;52.472;13.448;2023-08-21T09:17:26;25.80;99.90
18741;DHT22;9499;52.472;13.448;2023-08-21T09:19:53;25.90;98.10
18741;DHT22;9499;52.472;13.448;2023-08-21T09:22:19;25.80;1.00
18741;DHT22;9499;52.472;13.448;2023-08-21T09:25:01;25.90;1.00
18741;DHT22;9499;52.472;13.448;2023-08-21T09:27:32;26.00;1.00
18741;DHT22;9499;52.472;13.448;2023-08-21T09:29:58;26.10;1.00
18741;DHT22;9499;52.472;13.448;2023-08-21T09:32:25;26.30;1.00
18741;DHT22;9499;52.472;13.448;2023-08-21T09:34:51;26.40;1.00
18741;DHT22;9499;52.472;13.448;2023-08-21T09:37:18;26.60;1.00
18741;DHT22;9499;52.472;13.448;2023-08-21T09:39:44;26.50;1.00
18741;DHT22;9499;52.472;13.448;2023-08-21T09:42:14;26.50;99.90
18741;DHT22;9499;52.472;13.448;2023-08-21T09:44:41;26.60;1.00
18741;DHT22;9499;52.472;13.448;2023-08-21T09:47:08;26.60;1.00
18741;DHT22;9499;52.472;13.448;2023-08-21T09:49:36;26.70;1.00
18741;DHT22;9499;52.472;13.448;2023-08-21T09:52:05;26.60;99.90
18741;DHT22;9499;52.472;13.448;2023-08-21T09:54:31;26.50;1.00
18741;DHT22;9499;52.472;13.448;2023-08-21T09:57:02;26.40;1.00
18741;DHT22;9499;52.472;13.448;2023-08-21T09:59:31;26.40;1.00
18741;DHT22;9499;52.472;13.448;2023-08-21T10:01:59;26.50;1.00
18741;DHT22;9499;52.472;13.448;2023-08-21T10:04:27;26.60;99.90
18741;DHT22;9499;52.472;13.448;2023-08-21T10:06:55;26.90;99.90
18741;DHT22;9499;52.472;13.448;2023-08-21T10:09:23;27.10;99.90
18741;DHT22;9499;52.472;13.448;2023-08-21T10:11:52;27.10;99.90
18741;DHT22;9499;52.472;13.448;2023-08-21T10:14:19;27.20;99.90
18741;DHT22;9499;52.472;13.448;2023-08-21T10:16:48;27.40;99.90
18741;DHT22;9499;52.472;13.448;2023-08-21T10:19:15;27.60;99.90
18741;DHT22;9499;52.472;13.448;2023-08-21T10:21:46;27.90;99.90
18741;DHT22;9499;52.472;13.448;2023-08-21T10:24:26;28.10;99.90
18741;DHT22;9499;52.472;13.448;2023-08-21T10:26:53;27.80;99.90
18741;DHT22;9499;52.472;13.448;2023-08-21T10:29:20;27.60;99.90
18741;DHT22;9499;52.472;13.448;2023-08-21T10:31:58;27.40;99.90
18741;DHT22;9499;52.472;13.448;2023-08-21T10:34:31;27.60;99.90
18741;DHT22;9499;52.472;13.448;2023-08-21T10:37:10;28.00;99.90
18741;DHT22;9499;52.472;13.448;2023-08-21T10:39:38;28.00;99.90
18741;DHT22;9499;52.472;13.448;2023-08-21T10:42:07;28.20;99.90
18741;DHT22;9499;52.472;13.448;2023-08-21T10:44:46;28.30;99.90
18741;DHT22;9499;52.472;13.448;2023-08-21T10:47:17;28.40;99.90
18741;DHT22;9499;52.472;13.448;2023-08-21T10:49:45;28.30;99.90
18741;DHT22;9499;52.472;13.448;2023-08-21T10:52:12;28.50;99.90
18741;DHT22;9499;52.472;13.448;2023-08-21T10:54:43;28.80;99.90
18741;DHT22;9499;52.472;13.448;2023-08-21T10:57:10;29.00;99.90
18741;DHT22;9499;52.472;13.448;2023-08-21T10:59:36;29.10;99.90
18741;DHT22;9499;52.472;13.448;2023-08-21T11:02:03;28.90;99.90
18741;DHT22;9499;52.472;13.448;2023-08-21T11:04:39;28.90;99.90
18741;DHT22;9499;52.472;13.448;2023-08-21T11:07:06;29.20;99.90
18741;DHT22;9499;52.472;13.448;2023-08-21T11:09:35;29.40;99.90
18741;DHT22;9499;52.472;13.448;2023-08-21T11:12:05;29.50;99.90
18741;DHT22;9499;52.472;13.448;2023-08-21T11:14:32;29.30;99.90
18741;DHT22;9499;52.472;13.448;2023-08-21T11:17:00;29.00;99.90
18741;DHT22;9499;52.472;13.448;2023-08-21T11:19:26;28.70;99.90
18741;DHT22;9499;52.472;13.448;2023-08-21T11:21:54;28.50;99.90
18741;DHT22;9499;52.472;13.448;2023-08-21T11:24:21;28.40;99.90
18741;DHT22;9499;52.472;13.448;2023-08-21T11:26:47;28.20;99.90
18741;DHT22;9499;52.472;13.448;2023-08-21T11:29:14;28.10;99.90
18741;DHT22;9499;52.472;13.448;2023-08-21T11:31:41;28.30;99.90
18741;DHT22;9499;52.472;13.448;2023-08-21T11:34:07;28.10;99.90
18741;DHT22;9499;52.472;13.448;2023-08-21T11:36:34;27.90;99.90
18741;DHT22;9499;52.472;13.448;2023-08-21T11:39:02;27.80;99.90
18741;DHT22;9499;52.472;13.448;2023-08-21T11:41:30;27.90;99.90
18741;DHT22;9499;52.472;13.448;2023-08-21T11:44:01;28.10;99.90
18741;DHT22;9499;52.472;13.448;2023-08-21T11:46:29;28.30;99.90
18741;DHT22;9499;52.472;13.448;2023-08-21T11:48:55;28.40;99.90
18741;DHT22;9499;52.472;13.448;2023-08-21T11:51:22;28.60;99.90
18741;DHT22;9499;52.472;13.448;2023-08-21T11:53:48;28.80;99.90
18741;DHT22;9499;52.472;13.448;2023-08-21T11:56:17;29.00;99.90
18741;DHT22;9499;52.472;13.448;2023-08-21T11:58:45;28.90;99.90
18741;DHT22;9499;52.472;13.448;2023-08-21T12:01:16;29.00;99.90
18741;DHT22;9499;52.472;13.448;2023-08-21T12:03:43;28.90;99.90
18741;DHT22;9499;52.472;13.448;2023-08-21T12:06:12;28.80;99.90
18741;DHT22;9499;52.472;13.448;2023-08-21T12:08:39;28.60;99.90
18741;DHT22;9499;52.472;13.448;2023-08-21T12:11:07;28.50;99.90
18741;DHT22;9499;52.472;13.448;2023-08-21T12:13:35;28.40;99.90
18741;DHT22;9499;52.472;13.448;2023-08-21T12:16:01;28.30;99.90
18741;DHT22;9499;52.472;13.448;2023-08-21T12:18:28;28.20;99.90
18741;DHT22;9499;52.472;13.448;2023-08-21T12:20:54;28.20;99.90
18741;DHT22;9499;52.472;13.448;2023-08-21T12:23:21;28.10;99.90
18741;DHT22;9499;52.472;13.448;2023-08-21T12:25:48;28.00;99.90
18741;DHT22;9499;52.472;13.448;2023-08-21T12:28:14;27.90;99.90
18741;DHT22;9499;52.472;13.448;2023-08-21T12:30:42;27.90;99.90
18741;DHT22;9499;52.472;13.448;2023-08-21T12:33:08;27.90;99.90
18741;DHT22;9499;52.472;13.448;2023-08-21T12:35:35;27.80;99.90
18741;DHT22;9499;52.472;13.448;2023-08-21T12:38:11;27.80;99.90
18741;DHT22;9499;52.472;13.448;2023-08-21T12:40:38;27.80;99.90
18741;DHT22;9499;52.472;13.448;2023-08-21T12:43:04;27.90;99.90
18741;DHT22;9499;52.472;13.448;2023-08-21T12:45:31;28.20;99.90
18741;DHT22;9499;52.472;13.448;2023-08-21T12:47:58;28.60;99.90
18741;DHT22;9499;52.472;13.448;2023-08-21T12:50:25;28.60;99.90
18741;DHT22;9499;52.472;13.448;2023-08-21T12:52:51;28.50;99.90
18741;DHT22;9499;52.472;13.448;2023-08-21T12:55:18;28.30;99.90
18741;DHT22;9499;52.472;13.448;2023-08-21T12:57:44;28.10;99.90
18741;DHT22;9499;52.472;13.448;2023-08-21T13:00:12;28.00;99.90
18741;DHT22;9499;52.472;13.448;2023-08-21T13:02:39;28.10;99.90
18741;DHT22;9499;52.472;13.448;2023-08-21T13:05:08;28.30;99.90
18741;DHT22;9499;52.472;13.448;2023-08-21T13:07:34;28.50;99.90
18741;DHT22;9499;52.472;13.448;2023-08-21T13:10:01;29.00;99.90
18741;DHT22;9499;52.472;13.448;2023-08-21T13:12:27;29.20;99.90
18741;DHT22;9499;52.472;13.448;2023-08-21T13:14:54;29.60;99.90
18741;DHT22;9499;52.472;13.448;2023-08-21T13:17:20;29.80;99.90
18741;DHT22;9499;52.472;13.448;2023-08-21T13:19:47;29.90;99.90
18741;DHT22;9499;52.472;13.448;2023-08-21T13:22:16;29.80;99.90
18741;DHT22;9499;52.472;13.448;2023-08-21T13:24:43;29.80;99.90
18741;DHT22;9499;52.472;13.448;2023-08-21T13:27:10;29.70;99.90
18741;DHT22;9499;52.472;13.448;2023-08-21T13:29:37;29.60;99.90
18741;DHT22;9499;52.472;13.448;2023-08-21T13:32:05;29.70;99.90
18741;DHT22;9499;52.472;13.448;2023-08-21T13:34:32;29.70;99.90
18741;DHT22;9499;52.472;13.448;2023-08-21T13:36:58;29.70;99.90
18741;DHT22;9499;52.472;13.448;2023-08-21T13:39:26;29.40;99.90
18741;DHT22;9499;52.472;13.448;2023-08-21T13:41:52;29.00;99.90
18741;DHT22;9499;52.472;13.448;2023-08-21T13:44:19;28.80;99.90
18741;DHT22;9499;52.472;13.448;2023-08-21T13:46:45;28.70;99.90
18741;DHT22;9499;52.472;13.448;2023-08-21T13:49:12;28.70;99.90
18741;DHT22;9499;52.472;13.448;2023-08-21T13:51:38;28.90;99.90
18741;DHT22;9499;52.472;13.448;2023-08-21T13:54:05;29.10;99.90
18741;DHT22;9499;52.472;13.448;2023-08-21T13:56:33;29.10;99.90
18741;DHT22;9499;52.472;13.448;2023-08-21T13:58:59;29.20;99.90
18741;DHT22;9499;52.472;13.448;2023-08-21T14:01:26;29.10;99.90
18741;DHT22;9499;52.472;13.448;2023-08-21T14:03:52;29.20;99.90
18741;DHT22;9499;52.472;13.448;2023-08-21T14:06:19;29.30;99.90
18741;DHT22;9499;52.472;13.448;2023-08-21T14:08:45;29.20;99.90
18741;DHT22;9499;52.472;13.448;2023-08-21T14:11:11;29.30;99.90
18741;DHT22;9499;52.472;13.448;2023-08-21T14:13:39;29.30;99.90
18741;DHT22;9499;52.472;13.448;2023-08-21T14:16:06;29.10;99.90
18741;DHT22;9499;52.472;13.448;2023-08-21T14:18:32;29.30;99.90
18741;DHT22;9499;52.472;13.448;2023-08-21T14:20:59;29.30;99.90
18741;DHT22;9499;52.472;13.448;2023-08-21T14:23:25;28.90;99.90
18741;DHT22;9499;52.472;13.448;2023-08-21T14:25:52;28.80;99.90
18741;DHT22;9499;52.472;13.448;2023-08-21T14:28:18;28.90;99.90
18741;DHT22;9499;52.472;13.448;2023-08-21T14:30:46;29.30;99.90
18741;DHT22;9499;52.472;13.448;2023-08-21T14:33:13;29.80;99.90
18741;DHT22;9499;52.472;13.448;2023-08-21T14:35:39;30.20;99.90
18741;DHT22;9499;52.472;13.448;2023-08-21T14:38:06;30.30;99.90
18741;DHT22;9499;52.472;13.448;2023-08-21T14:40:32;30.20;99.90
18741;DHT22;9499;52.472;13.448;2023-08-21T14:42:58;30.10;99.90
18741;DHT22;9499;52.472;13.448;2023-08-21T14:45:25;29.90;99.90
18741;DHT22;9499;52.472;13.448;2023-08-21T14:47:53;30.00;99.90
18741;DHT22;9499;52.472;13.448;2023-08-21T14:50:20;29.80;99.90
18741;DHT22;9499;52.472;13.448;2023-08-21T14:52:46;29.20;99.90
18741;DHT22;9499;52.472;13.448;2023-08-21T14:55:13;29.00;99.90
18741;DHT22;9499;52.472;13.448;2023-08-21T14:57:40;28.90;99.90
18741;DHT22;9499;52.472;13.448;2023-08-21T15:00:07;28.70;99.90
18741;DHT22;9499;52.472;13.448;2023-08-21T15:02:35;28.70;99.90
18741;DHT22;9499;52.472;13.448;2023-08-21T15:05:03;28.60;99.90
18741;DHT22;9499;52.472;13.448;2023-08-21T15:07:30;28.60;99.90
18741;DHT22;9499;52.472;13.448;2023-08-21T15:09:57;29.00;99.90
18741;DHT22;9499;52.472;13.448;2023-08-21T15:12:23;29.40;99.90
18741;DHT22;9499;52.472;13.448;2023-08-21T15:14:50;29.70;99.90
18741;DHT22;9499;52.472;13.448;2023-08-21T15:17:17;30.00;99.90
18741;DHT22;9499;52.472;13.448;2023-08-21T15:19:44;29.70;99.90
18741;DHT22;9499;52.472;13.448;2023-08-21T15:22:12;29.10;99.90
18741;DHT22;9499;52.472;13.448;2023-08-21T15:24:38;28.60;99.90
18741;DHT22;9499;52.472;13.448;2023-08-21T15:27:05;28.50;99.90
18741;DHT22;9499;52.472;13.448;2023-08-21T15:29:31;28.60;99.90
18741;DHT22;9499;52.472;13.448;2023-08-21T15:31:57;28.60;99.90
18741;DHT22;9499;52.472;13.448;2023-08-21T15:34:24;28.60;99.90
18741;DHT22;9499;52.472;13.448;2023-08-21T15:36:50;28.80;99.90
18741;DHT22;9499;52.472;13.448;2023-08-21T15:39:18;29.10;99.90
18741;DHT22;9499;52.472;13.448;2023-08-21T15:41:45;29.60;99.90